createdAt,value
2023-01-30T00:01:32.047Z,100515.22
2023-01-30T00:03:59.159Z,100518.47
2023-01-30T00:06:26.295Z,100516.84
2023-01-30T00:08:53.212Z,100511.75
2023-01-30T00:11:21.113Z,100507.03
2023-01-30T00:13:50.844Z,100501.34
2023-01-30T00:16:18.625Z,100497.28
2023-01-30T00:18:45.949Z,100493.22
2023-01-30T00:21:14.611Z,100493.41
2023-01-30T00:23:41.949Z,100490.97
2023-01-30T00:26:09.909Z,100485.88
2023-01-30T00:28:39.837Z,100475.91
2023-01-30T00:31:07.324Z,100478.56
2023-01-30T00:33:34.050Z,100469.28
2023-01-30T00:36:02.977Z,100473.66
2023-01-30T00:38:29.832Z,100470.41
2023-01-30T00:40:56.533Z,100468.97
2023-01-30T00:43:41.563Z,100458.81
2023-01-30T00:46:52.330Z,100460.00
2023-01-30T00:49:19.594Z,100460.22
2023-01-30T00:51:46.402Z,100452.09
2023-01-30T00:54:13.297Z,100453.28
2023-01-30T00:56:40.039Z,100451.88
2023-01-30T00:59:06.747Z,100445.22
2023-01-30T01:01:33.496Z,100434.47
2023-01-30T01:04:00.233Z,100433.66
2023-01-30T01:06:27.051Z,100430.38
2023-01-30T01:08:53.852Z,100425.19
2023-01-30T01:11:26.911Z,100426.81
2023-01-30T01:13:56.140Z,100428.66
2023-01-30T01:16:24.203Z,100420.22
2023-01-30T01:18:51.908Z,100412.59
2023-01-30T01:21:20.297Z,100413.41
2023-01-30T01:23:52.467Z,100414.31
2023-01-30T01:26:19.929Z,100401.59
2023-01-30T01:28:46.857Z,100398.53
2023-01-30T01:31:16.372Z,100387.13
2023-01-30T01:33:43.211Z,100385.50
2023-01-30T01:36:10.002Z,100391.47
2023-01-30T01:38:36.855Z,100389.84
2023-01-30T01:41:04.994Z,100390.75
2023-01-30T01:43:35.096Z,100387.50
2023-01-30T01:46:11.883Z,100387.94
2023-01-30T01:48:58.166Z,100379.06
2023-01-30T01:51:24.865Z,100377.34
2023-01-30T01:54:01.845Z,100375.81
2023-01-30T01:56:29.603Z,100375.00
2023-01-30T01:59:01.457Z,100372.47
2023-01-30T02:01:29.790Z,100374.38
2023-01-30T02:04:03.696Z,100376.09
2023-01-30T02:06:31.712Z,100369.38
2023-01-30T02:09:05.477Z,100359.53
2023-01-30T02:11:42.267Z,100358.31
2023-01-30T02:14:10.977Z,100353.13
2023-01-30T02:16:38.092Z,100348.25
2023-01-30T02:19:15.059Z,100348.25
2023-01-30T02:21:59.726Z,100354.75
2023-01-30T02:24:38.967Z,100356.56
2023-01-30T02:27:14.650Z,100338.06
2023-01-30T02:30:02.269Z,100328.72
2023-01-30T02:32:51.237Z,100330.56
2023-01-30T02:35:35.937Z,100324.97
2023-01-30T02:38:10.875Z,100316.03
2023-01-30T02:40:41.142Z,100312.56
2023-01-30T02:43:24.679Z,100316.13
2023-01-30T02:46:04.220Z,100319.47
2023-01-30T02:48:42.704Z,100312.78
2023-01-30T02:51:26.676Z,100318.78
2023-01-30T02:53:54.674Z,100310.66
2023-01-30T02:56:21.644Z,100300.28
2023-01-30T02:58:53.391Z,100300.78
2023-01-30T03:01:26.274Z,100299.66
2023-01-30T03:04:26.567Z,100295.69
2023-01-30T03:07:17.491Z,100295.69
2023-01-30T03:10:05.595Z,100280.44
2023-01-30T03:12:40.900Z,100278.91
2023-01-30T03:15:24.027Z,100278.91
2023-01-30T03:17:51.407Z,100273.63
2023-01-30T03:20:20.648Z,100268.56
2023-01-30T03:22:47.822Z,100261.75
2023-01-30T03:25:27.025Z,100262.03
2023-01-30T03:27:55.896Z,100258.56
2023-01-30T03:30:26.266Z,100262.25
2023-01-30T03:33:00.585Z,100259.91
2023-01-30T03:35:27.525Z,100246.41
2023-01-30T03:37:54.660Z,100246.28
2023-01-30T03:40:21.606Z,100240.19
2023-01-30T03:42:49.537Z,100239.47
2023-01-30T03:45:17.034Z,100236.81
2023-01-30T03:47:46.312Z,100236.13
2023-01-30T03:50:13.317Z,100235.41
2023-01-30T03:52:40.800Z,100243.94
2023-01-30T03:55:11.772Z,100242.31
2023-01-30T03:57:39.051Z,100235.72
2023-01-30T04:00:06.590Z,100232.34
2023-01-30T04:02:43.102Z,100232.34
2023-01-30T04:05:12.478Z,100237.44
2023-01-30T04:07:43.706Z,100240.69
2023-01-30T04:10:11.071Z,100230.53
2023-01-30T04:12:37.815Z,100232.16
2023-01-30T04:15:05.895Z,100225.44
2023-01-30T04:17:51.144Z,100221.16
2023-01-30T04:20:29.518Z,100215.28
2023-01-30T04:22:57.338Z,100212.72
2023-01-30T04:25:26.094Z,100197.59
2023-01-30T04:27:53.072Z,100205.31
2023-01-30T04:30:27.457Z,100201.84
2023-01-30T04:33:05.932Z,100201.84
2023-01-30T04:35:32.653Z,100201.84
2023-01-30T04:37:59.414Z,100189.84
2023-01-30T04:40:27.344Z,100202.56
2023-01-30T04:42:55.303Z,100194.13
2023-01-30T04:45:43.818Z,100188.22
2023-01-30T04:48:10.675Z,100184.59
2023-01-30T04:50:38.298Z,100186.00
2023-01-30T04:53:06.580Z,100184.75
2023-01-30T04:55:34.270Z,100176.00
2023-01-30T04:58:01.260Z,100175.94
2023-01-30T05:00:28.744Z,100173.97
2023-01-30T05:02:59.183Z,100163.69
2023-01-30T05:05:27.106Z,100165.34
2023-01-30T05:07:54.441Z,100168.38
2023-01-30T05:10:21.857Z,100171.50
2023-01-30T05:12:49.062Z,100171.38
2023-01-30T05:15:16.171Z,100174.56
2023-01-30T05:17:44.728Z,100174.31
2023-01-30T05:20:12.735Z,100161.31
2023-01-30T05:22:39.494Z,100165.34
2023-01-30T05:25:06.686Z,100156.81
2023-01-30T05:27:33.403Z,100147.22
2023-01-30T05:30:00.117Z,100153.13
2023-01-30T05:32:27.538Z,100148.84
2023-01-30T05:34:54.241Z,100151.50
2023-01-30T05:37:21.014Z,100135.31
2023-01-30T05:39:48.104Z,100139.38
2023-01-30T05:42:16.086Z,100121.34
2023-01-30T05:44:42.882Z,100122.97
2023-01-30T05:47:09.598Z,100124.38
2023-01-30T05:49:36.379Z,100122.31
2023-01-30T05:52:03.101Z,100123.47
2023-01-30T05:54:29.938Z,100110.56
2023-01-30T05:56:56.777Z,100110.31
2023-01-30T05:59:23.573Z,100118.53
2023-01-30T06:01:50.363Z,100122.81
2023-01-30T06:04:17.120Z,100115.88
2023-01-30T06:06:43.847Z,100121.69
2023-01-30T06:09:11.564Z,100146.91
2023-01-30T06:11:38.912Z,100139.53
2023-01-30T06:14:05.719Z,100130.63
2023-01-30T06:16:32.563Z,100121.06
2023-01-30T06:18:59.302Z,100118.28
2023-01-30T06:21:26.109Z,100106.13
2023-01-30T06:23:53.501Z,100112.72
2023-01-30T06:26:20.319Z,100115.25
2023-01-30T06:28:47.177Z,100110.81
2023-01-30T06:31:16.441Z,100131.06
2023-01-30T06:33:44.028Z,100145.06
2023-01-30T06:36:10.881Z,100142.88
2023-01-30T06:38:37.770Z,100147.97
2023-01-30T06:41:04.616Z,100118.72
2023-01-30T06:43:31.433Z,100123.19
2023-01-30T06:46:00.066Z,100125.41
2023-01-30T06:48:27.004Z,100103.84
2023-01-30T06:50:53.994Z,100085.56
2023-01-30T06:53:22.341Z,100086.81
2023-01-30T06:55:49.116Z,100113.56
2023-01-30T06:58:16.077Z,100097.31
2023-01-30T07:00:43.754Z,100097.88
2023-01-30T07:03:18.145Z,100093.38
2023-01-30T07:05:47.008Z,100098.00
2023-01-30T07:08:15.215Z,100097.88
2023-01-30T07:10:43.236Z,100093.25
2023-01-30T07:13:10.717Z,100078.38
2023-01-30T07:15:37.721Z,100074.41
2023-01-30T07:18:05.257Z,100081.56
2023-01-30T07:20:33.803Z,100079.47
2023-01-30T07:23:03.474Z,100070.09
2023-01-30T07:25:31.087Z,100071.44
2023-01-30T07:28:00.579Z,100074.47
2023-01-30T07:30:29.433Z,100081.75
2023-01-30T07:32:59.888Z,100080.94
2023-01-30T07:35:28.692Z,100093.34
2023-01-30T07:37:55.475Z,100094.97
2023-01-30T07:40:23.465Z,100093.09
2023-01-30T07:43:11.593Z,100095.31
2023-01-30T07:45:47.598Z,100085.44
2023-01-30T07:48:17.074Z,100102.56
2023-01-30T07:50:44.718Z,100104.19
2023-01-30T07:53:14.316Z,100095.59
2023-01-30T07:55:41.749Z,100086.06
2023-01-30T07:58:10.706Z,100072.50
2023-01-30T08:00:37.823Z,100072.50
2023-01-30T08:03:04.686Z,100057.63
2023-01-30T08:05:31.818Z,100058.84
2023-01-30T08:08:00.822Z,100057.69
2023-01-30T08:10:27.631Z,100050.72
2023-01-30T08:12:54.479Z,100051.38
2023-01-30T08:15:22.845Z,100043.59
2023-01-30T08:17:57.108Z,100040.25
2023-01-30T08:20:24.967Z,100039.31
2023-01-30T08:22:51.808Z,100046.38
2023-01-30T08:25:18.911Z,100045.34
2023-01-30T08:27:45.842Z,100037.03
2023-01-30T08:30:13.639Z,100030.06
2023-01-30T08:32:40.499Z,100022.81
2023-01-30T08:35:08.672Z,100018.00
2023-01-30T08:37:35.553Z,100015.34
2023-01-30T08:40:02.494Z,100021.31
2023-01-30T08:42:29.668Z,100021.53
2023-01-30T08:45:00.467Z,100009.56
2023-01-30T08:47:30.672Z,100003.75
2023-01-30T08:49:57.700Z,100002.03
2023-01-30T08:52:24.596Z,99984.91
2023-01-30T08:54:51.465Z,99994.03
2023-01-30T08:57:18.493Z,99988.91
2023-01-30T08:59:45.853Z,99988.19
2023-01-30T09:02:13.364Z,99967.22
2023-01-30T09:04:40.240Z,99976.31
2023-01-30T09:07:07.146Z,99945.66
2023-01-30T09:09:34.278Z,99954.81
2023-01-30T09:12:04.627Z,99969.56
2023-01-30T09:14:34.440Z,99954.78
2023-01-30T09:17:01.305Z,99956.59
2023-01-30T09:19:29.299Z,99955.56
2023-01-30T09:21:56.615Z,99940.75
2023-01-30T09:24:26.689Z,99936.72
2023-01-30T09:26:54.684Z,99932.41
2023-01-30T09:29:21.577Z,99925.34
2023-01-30T09:31:48.432Z,99931.13
2023-01-30T09:34:15.447Z,99926.34
2023-01-30T09:36:42.445Z,99926.44
2023-01-30T09:39:09.544Z,99905.66
2023-01-30T09:41:42.185Z,99916.59
2023-01-30T09:44:38.277Z,99912.25
2023-01-30T09:47:19.284Z,99899.59
2023-01-30T09:50:21.741Z,99891.31
2023-01-30T09:52:54.532Z,99885.22
2023-01-30T09:55:23.306Z,99886.19
2023-01-30T09:57:51.672Z,99883.13
2023-01-30T10:00:23.757Z,99865.59
2023-01-30T10:03:09.204Z,99858.69
2023-01-30T10:05:45.468Z,99847.28
2023-01-30T10:08:24.527Z,99834.41
2023-01-30T10:11:08.943Z,99831.50
2023-01-30T10:13:39.298Z,99840.00
2023-01-30T10:16:25.171Z,99826.66
2023-01-30T10:19:33.607Z,99819.28
2023-01-30T10:22:11.944Z,99821.53
2023-01-30T10:25:13.224Z,99805.19
2023-01-30T10:27:52.558Z,99792.50
2023-01-30T10:30:20.650Z,99802.97
2023-01-30T10:33:01.040Z,99796.84
2023-01-30T10:35:38.303Z,99792.84
2023-01-30T10:38:21.006Z,99783.03
2023-01-30T10:41:13.947Z,99779.81
2023-01-30T10:43:48.129Z,99774.97
2023-01-30T10:46:17.745Z,99770.50
2023-01-30T10:48:57.126Z,99774.97
2023-01-30T10:51:27.028Z,99763.88
2023-01-30T10:54:03.820Z,99760.69
2023-01-30T10:56:30.566Z,99760.69
2023-01-30T10:59:23.938Z,99750.44
2023-01-30T11:02:16.974Z,99741.63
2023-01-30T11:05:17.090Z,99717.22
2023-01-30T11:07:46.837Z,99691.81
2023-01-30T11:10:25.885Z,99694.72
2023-01-30T11:13:00.654Z,99701.94
2023-01-30T11:15:41.117Z,99703.03
2023-01-30T11:19:05.290Z,99678.63
2023-01-30T11:21:13.190Z,99685.88
2023-01-30T11:23:44.625Z,99692.94
2023-01-30T11:26:46.840Z,99698.25
2023-01-30T11:29:30.366Z,99694.56
2023-01-30T11:32:02.924Z,99682.84
2023-01-30T11:34:29.791Z,99692.94
2023-01-30T11:37:23.569Z,99679.16
2023-01-30T11:39:53.881Z,99668.84
2023-01-30T11:42:24.359Z,99663.69
2023-01-30T11:45:10.813Z,99660.31
2023-01-30T11:47:57.711Z,99664.19
2023-01-30T11:50:30.852Z,99658.78
2023-01-30T11:53:04.046Z,99655.88
2023-01-30T11:55:37.616Z,99645.94
2023-01-30T11:58:08.232Z,99643.03
2023-01-30T12:00:42.366Z,99639.03
2023-01-30T12:03:14.686Z,99635.50
2023-01-30T12:05:44.604Z,99638.22
2023-01-30T12:08:24.790Z,99625.38
2023-01-30T12:11:02.844Z,99620.53
2023-01-30T12:13:45.543Z,99626.25
2023-01-30T12:16:26.968Z,99629.78
2023-01-30T12:19:06.398Z,99607.72
2023-01-30T12:22:07.394Z,99615.06
2023-01-30T12:24:45.593Z,99592.16
2023-01-30T12:27:44.860Z,99611.38
2023-01-30T12:30:36.055Z,99610.88
2023-01-30T12:33:07.099Z,99599.84
2023-01-30T12:36:03.480Z,99601.59
2023-01-30T12:38:43.097Z,99570.00
2023-01-30T12:41:32.146Z,99569.47
2023-01-30T12:44:10.318Z,99563.72
2023-01-30T12:46:56.026Z,99564.03
2023-01-30T12:49:53.876Z,99558.78
2023-01-30T12:52:57.510Z,99560.56
2023-01-30T12:55:51.505Z,99555.78
2023-01-30T12:58:56.913Z,99568.44
2023-01-30T13:01:43.347Z,99560.44
2023-01-30T13:05:04.121Z,99563.94
2023-01-30T13:07:59.850Z,99559.28
2023-01-30T13:10:35.600Z,99557.38
2023-01-30T13:13:35.865Z,99556.56
2023-01-30T13:16:05.989Z,99509.41
2023-01-30T13:18:50.878Z,99538.75
2023-01-30T13:21:41.128Z,99542.13
2023-01-30T13:24:30.748Z,99542.09
2023-01-30T13:27:00.697Z,99522.38
2023-01-30T13:29:38.176Z,99526.38
2023-01-30T13:32:27.953Z,99524.56
2023-01-30T13:34:59.432Z,99539.00
2023-01-30T13:37:27.133Z,99527.19
2023-01-30T13:40:00.863Z,99519.00
2023-01-30T13:42:33.523Z,99509.63
2023-01-30T13:45:02.104Z,99511.34
2023-01-30T13:47:53.872Z,99515.44
2023-01-30T13:50:29.232Z,99511.28
2023-01-30T13:53:05.178Z,99510.66
2023-01-30T13:55:45.435Z,99500.00
2023-01-30T13:58:34.563Z,99521.50
2023-01-30T14:01:01.588Z,99520.22
2023-01-30T14:03:33.382Z,99522.75
2023-01-30T14:06:02.800Z,99511.16
2023-01-30T14:08:45.735Z,99518.59
2023-01-30T14:11:55.559Z,99518.53
2023-01-30T14:14:40.694Z,99514.44
2023-01-30T14:17:17.582Z,99514.75
2023-01-30T14:20:05.342Z,99526.88
2023-01-30T14:22:47.176Z,99518.84
2023-01-30T14:25:26.018Z,99518.28
2023-01-30T14:27:53.988Z,99519.75
2023-01-30T14:30:35.195Z,99522.84
2023-01-30T14:33:04.488Z,99526.66
2023-01-30T14:35:34.305Z,99535.84
2023-01-30T14:38:12.031Z,99538.59
2023-01-30T14:40:46.990Z,99538.66
2023-01-30T14:43:16.631Z,99539.63
2023-01-30T14:45:49.762Z,99548.94
2023-01-30T14:48:27.209Z,99556.50
2023-01-30T14:51:25.113Z,99559.56
2023-01-30T14:53:59.640Z,99560.34
2023-01-30T14:57:08.494Z,99560.38
2023-01-30T15:00:15.077Z,99562.63
2023-01-30T15:02:50.470Z,99569.84
2023-01-30T15:05:27.715Z,99559.56
2023-01-30T15:08:18.890Z,99548.69
2023-01-30T15:11:21.238Z,99567.63
2023-01-30T15:14:22.430Z,99580.47
2023-01-30T15:17:03.083Z,99573.38
2023-01-30T15:19:33.090Z,99560.72
2023-01-30T15:21:59.786Z,99568.63
2023-01-30T15:24:48.308Z,99580.78
2023-01-30T15:27:37.479Z,99579.53
2023-01-30T15:30:23.479Z,99584.34
2023-01-30T15:33:06.992Z,99592.34
2023-01-30T15:35:33.696Z,99592.34
2023-01-30T15:38:00.435Z,99596.19
2023-01-30T15:40:29.892Z,99592.78
2023-01-30T15:42:56.608Z,99582.47
2023-01-30T15:45:38.639Z,99583.63
2023-01-30T15:48:39.534Z,99594.84
2023-01-30T15:51:10.813Z,99585.19
2023-01-30T15:53:44.837Z,99581.47
2023-01-30T15:56:25.085Z,99576.81
2023-01-30T15:58:52.272Z,99586.28
2023-01-30T16:01:21.612Z,99588.22
2023-01-30T16:03:50.271Z,99587.25
2023-01-30T16:06:30.364Z,99585.34
2023-01-30T16:09:20.230Z,99598.03
2023-01-30T16:11:47.123Z,99599.97
2023-01-30T16:14:19.221Z,99605.41
2023-01-30T16:16:55.334Z,99620.53
2023-01-30T16:19:29.707Z,99605.78
2023-01-30T16:22:05.725Z,99619.22
2023-01-30T16:24:35.812Z,99619.72
2023-01-30T16:27:07.259Z,99625.97
2023-01-30T16:29:46.227Z,99608.94
2023-01-30T16:32:14.502Z,99608.31
2023-01-30T16:34:41.434Z,99611.84
2023-01-30T16:37:17.010Z,99621.00
2023-01-30T16:39:45.764Z,99617.28
2023-01-30T16:42:29.737Z,99621.78
2023-01-30T16:45:20.836Z,99617.00
2023-01-30T16:47:48.221Z,99622.44
2023-01-30T16:50:23.274Z,99615.25
2023-01-30T16:52:55.358Z,99620.53
2023-01-30T16:55:24.635Z,99621.00
2023-01-30T16:57:57.006Z,99624.88
2023-01-30T17:00:36.540Z,99628.72
2023-01-30T17:03:22.891Z,99630.03
2023-01-30T17:05:50.187Z,99621.06
2023-01-30T17:08:54.048Z,99643.19
2023-01-30T17:11:41.118Z,99652.84
2023-01-30T17:14:16.627Z,99642.09
2023-01-30T17:16:46.376Z,99646.06
2023-01-30T17:19:14.634Z,99650.41
2023-01-30T17:22:02.281Z,99645.94
2023-01-30T17:24:29.322Z,99651.06
2023-01-30T17:27:02.449Z,99655.91
2023-01-30T17:29:47.039Z,99653.31
2023-01-30T17:32:16.264Z,99662.63
2023-01-30T17:34:43.275Z,99659.25
2023-01-30T17:37:18.463Z,99659.09
2023-01-30T17:39:45.506Z,99665.47
2023-01-30T17:42:13.641Z,99657.66
2023-01-30T17:44:41.067Z,99654.28
2023-01-30T17:47:10.071Z,99657.16
2023-01-30T17:49:37.043Z,99654.75
2023-01-30T17:52:04.036Z,99654.75
2023-01-30T17:54:30.992Z,99655.88
2023-01-30T17:57:04.216Z,99647.53
2023-01-30T17:59:31.692Z,99639.34
2023-01-30T18:01:59.006Z,99644.63
2023-01-30T18:04:25.945Z,99641.94
2023-01-30T18:07:03.693Z,99644.63
2023-01-30T18:09:30.766Z,99632.47
2023-01-30T18:11:58.033Z,99642.72
2023-01-30T18:14:24.877Z,99644.63
2023-01-30T18:16:51.874Z,99640.78
2023-01-30T18:19:23.998Z,99646.25
2023-01-30T18:21:51.157Z,99638.38
2023-01-30T18:24:18.608Z,99640.13
2023-01-30T18:26:45.889Z,99639.34
2023-01-30T18:29:12.920Z,99642.41
2023-01-30T18:31:40.959Z,99642.09
2023-01-30T18:34:09.965Z,99655.69
2023-01-30T18:36:38.194Z,99657.00
2023-01-30T18:39:07.109Z,99669.53
2023-01-30T18:41:35.407Z,99657.13
2023-01-30T18:44:04.882Z,99675.47
2023-01-30T18:46:32.585Z,99674.84
2023-01-30T18:48:59.881Z,99671.31
2023-01-30T18:51:30.270Z,99671.00
2023-01-30T18:53:57.848Z,99678.34
2023-01-30T18:56:31.308Z,99673.38
2023-01-30T18:59:02.507Z,99673.56
2023-01-30T19:01:32.180Z,99657.97
2023-01-30T19:04:01.069Z,99653.00
2023-01-30T19:06:28.903Z,99663.44
2023-01-30T19:08:57.890Z,99662.94
2023-01-30T19:11:43.767Z,99671.44
2023-01-30T19:14:11.264Z,99654.59
2023-01-30T19:16:39.049Z,99652.19
2023-01-30T19:19:07.011Z,99652.66
2023-01-30T19:21:34.517Z,99645.59
2023-01-30T19:24:07.792Z,99643.66
2023-01-30T19:26:35.662Z,99650.75
2023-01-30T19:29:02.592Z,99636.13
2023-01-30T19:31:29.721Z,99628.25
2023-01-30T19:33:59.121Z,99632.59
2023-01-30T19:36:27.995Z,99645.59
2023-01-30T19:38:55.110Z,99641.75
2023-01-30T19:41:25.295Z,99645.59
2023-01-30T19:43:53.329Z,99647.84
2023-01-30T19:46:20.552Z,99648.44
2023-01-30T19:48:49.049Z,99650.41
2023-01-30T19:51:17.096Z,99659.22
2023-01-30T19:53:45.534Z,99667.75
2023-01-30T19:56:13.666Z,99677.22
2023-01-30T19:58:41.321Z,99686.38
2023-01-30T20:01:10.343Z,99694.38
2023-01-30T20:03:38.270Z,99696.00
2023-01-30T20:06:14.354Z,99695.03
2023-01-30T20:08:42.474Z,99696.00
2023-01-30T20:11:11.826Z,99690.19
2023-01-30T20:13:40.243Z,99693.72
2023-01-30T20:16:11.484Z,99705.63
2023-01-30T20:18:39.298Z,99700.34
2023-01-30T20:21:11.668Z,99699.22
2023-01-30T20:23:41.362Z,99704.00
2023-01-30T20:26:10.401Z,99705.97
2023-01-30T20:28:37.313Z,99703.06
2023-01-30T20:31:21.565Z,99702.75
2023-01-30T20:33:48.980Z,99704.97
2023-01-30T20:36:18.984Z,99713.97
2023-01-30T20:38:47.505Z,99708.19
2023-01-30T20:41:20.222Z,99720.56
2023-01-30T20:43:51.033Z,99716.88
2023-01-30T20:46:23.235Z,99713.69
2023-01-30T20:48:53.478Z,99710.91
2023-01-30T20:51:25.063Z,99714.44
2023-01-30T20:53:58.391Z,99705.13
2023-01-30T20:56:25.947Z,99712.88
2023-01-30T20:58:53.260Z,99708.19
2023-01-30T21:01:23.289Z,99695.97
2023-01-30T21:03:52.368Z,99688.25
2023-01-30T21:06:42.643Z,99693.69
2023-01-30T21:09:11.863Z,99701.56
2023-01-30T21:11:39.468Z,99712.31
2023-01-30T21:14:06.369Z,99711.66
2023-01-30T21:16:35.408Z,99704.72
2023-01-30T21:19:05.596Z,99715.66
2023-01-30T21:21:37.065Z,99714.84
2023-01-30T21:24:07.401Z,99715.66
2023-01-30T21:26:37.104Z,99721.59
2023-01-30T21:29:06.284Z,99709.88
2023-01-30T21:31:34.907Z,99734.47
2023-01-30T21:34:02.366Z,99729.66
2023-01-30T21:36:29.799Z,99722.56
2023-01-30T21:39:15.130Z,99732.50
2023-01-30T21:42:02.919Z,99731.56
2023-01-30T21:44:38.002Z,99747.94
2023-01-30T21:47:06.468Z,99745.38
2023-01-30T21:49:33.702Z,99742.34
2023-01-30T21:52:02.965Z,99744.75
2023-01-30T21:54:29.704Z,99746.16
2023-01-30T21:56:56.962Z,99738.91
2023-01-30T21:59:23.757Z,99737.47
2023-01-30T22:01:50.997Z,99731.69
2023-01-30T22:04:17.864Z,99738.81
2023-01-30T22:06:45.004Z,99739.59
2023-01-30T22:09:16.108Z,99739.59
2023-01-30T22:11:43.444Z,99734.91
2023-01-30T22:14:13.460Z,99742.13
2023-01-30T22:16:40.817Z,99740.84
2023-01-30T22:19:07.937Z,99743.94
2023-01-30T22:21:37.586Z,99735.59
2023-01-30T22:24:05.892Z,99742.63
2023-01-30T22:26:34.117Z,99737.72
2023-01-30T22:29:03.646Z,99740.28
2023-01-30T22:31:36.663Z,99736.75
2023-01-30T22:34:05.005Z,99723.88
2023-01-30T22:36:33.223Z,99713.00
2023-01-30T22:39:00.226Z,99721.03
2023-01-30T22:41:30.546Z,99714.59
2023-01-30T22:43:59.369Z,99709.78
2023-01-30T22:46:31.600Z,99718.94
2023-01-30T22:48:59.533Z,99711.38
2023-01-30T22:51:31.795Z,99689.56
2023-01-30T22:54:01.135Z,99699.34
2023-01-30T22:56:39.812Z,99719.13
2023-01-30T22:59:07.151Z,99704.50
2023-01-30T23:01:37.086Z,99690.53
2023-01-30T23:04:11.609Z,99692.94
2023-01-30T23:06:39.202Z,99697.28
2023-01-30T23:09:07.649Z,99689.88
2023-01-30T23:11:37.977Z,99683.28
2023-01-30T23:14:11.775Z,99696.94
2023-01-30T23:16:41.290Z,99709.25
2023-01-30T23:19:09.562Z,99711.66
2023-01-30T23:21:37.997Z,99716.13
2023-01-30T23:24:13.584Z,99715.19
2023-01-30T23:26:43.109Z,99720.47
2023-01-30T23:29:13.354Z,99718.03
2023-01-30T23:31:41.387Z,99728.03
2023-01-30T23:34:11.756Z,99726.53
2023-01-30T23:36:38.881Z,99726.38
2023-01-30T23:39:05.789Z,99731.25
2023-01-30T23:41:35.252Z,99733.50
2023-01-30T23:44:02.365Z,99736.09
2023-01-30T23:46:40.704Z,99724.19
2023-01-30T23:49:09.946Z,99726.75
2023-01-30T23:51:39.870Z,99717.44
2023-01-30T23:54:07.598Z,99726.09
2023-01-30T23:56:36.481Z,99712.53
2023-01-30T23:59:04.218Z,99717.25
